Weather reports worldwide

Advertisment
Torino/Bric Della Croce, Italy (16061): temperature & dewpoint: 17.05.2019 14:00:00 - 23.05.2019 14:00:00 (CEST)Torino/Bric Della Croce, Italy (16061): wind speed: 17.05.2019 14:00:00 - 23.05.2019 14:00:00 (CEST)Torino/Bric Della Croce, Italy (16061): wind direction: 17.05.2019 14:00:00 - 23.05.2019 14:00:00 (CEST)Torino/Bric Della Croce, Italy (16061): visibility: 17.05.2019 14:00:00 - 23.05.2019 14:00:00 (CEST)Torino/Bric Della Croce, Italy (16061): sunshine duration: 17.05.2019 14:00:00 - 23.05.2019 14:00:00 (CEST)
Date & Time tt [°C] td [°C] ff [km/h] ff [kn] dd vv [km] sd [min]
23.05.2019 14:00:00 18,0 11,8 11 6 NW 30 60
23.05.2019 13:00:00 17,8 12,3 9 5 S 30 60
23.05.2019 12:00:00 16,2 12,0 0 0 N 30 60
23.05.2019 11:00:00 15,6 14,0 0 0 N 30 60
23.05.2019 10:00:00 14,2 14,2 0 0 N 30 60
23.05.2019 09:00:00 14,8 14,8 0 0 N 30 60
23.05.2019 08:00:00 14,0 11,7 4 2 NE 40 24
23.05.2019 07:00:00 13,4 11,8 5 3 NE 50 -
23.05.2019 06:00:00 12,8 12,0 8 4 N 50 -
23.05.2019 05:00:00 12,8 12,8 9 5 NNW 50 -
23.05.2019 04:00:00 13,0 13,0 11 6 N 30 -
23.05.2019 03:00:00 14,0 11,4 18 10 NE 50 -
23.05.2019 02:00:00 14,6 10,8 8 4 N 40 -
23.05.2019 01:00:00 14,8 10,4 13 7 W 20 -
23.05.2019 00:00:00 15,4 9,5 8 4 W 40 -
22.05.2019 23:00:00 15,4 7,7 15 8 SSE 50 -
22.05.2019 22:00:00 15,4 10,6 13 7 SE 40 -
22.05.2019 21:00:00 16,4 11,8 18 10 SSE 30 0
22.05.2019 20:00:00 18,0 10,9 11 6 SE 30 42
22.05.2019 19:00:00 18,8 9,8 9 5 SSE 20 18
22.05.2019 18:00:00 19,2 11,3 8 4 S 18 60
22.05.2019 17:00:00 19,0 12,0 11 6 S 18 60
22.05.2019 16:00:00 18,6 11,9 9 5 S 15 60
22.05.2019 15:00:00 18,0 12,7 11 6 S 15 60
22.05.2019 14:00:00 17,2 13,1 11 6 S 13 60
22.05.2019 13:00:00 16,8 13,5 11 6 SSE 13 60
22.05.2019 12:00:00 15,4 13,1 8 4 S 13 60
22.05.2019 11:00:00 14,8 13,2 5 3 S 15 60
22.05.2019 10:00:00 14,0 13,2 4 2 S 15 60
22.05.2019 09:00:00 13,0 12,5 5 3 S 15 60
22.05.2019 08:00:00 12,0 12,0 9 5 S 15 48
22.05.2019 07:00:00 12,0 12,0 13 7 S 15 -
22.05.2019 06:00:00 12,2 12,2 15 8 SSW 20 -
22.05.2019 05:00:00 12,4 11,3 9 5 SW 20 -
22.05.2019 04:00:00 12,4 11,1 13 7 SW 20 -
22.05.2019 03:00:00 12,2 12,2 9 5 S 15 -
22.05.2019 02:00:00 12,4 12,1 8 4 SSE 15 -
22.05.2019 01:00:00 12,8 12,2 11 6 S 15 -
22.05.2019 00:00:00 13,0 10,9 9 5 SSW 20 -
21.05.2019 23:00:00 13,0 11,1 11 6 SSW 15 -
21.05.2019 22:00:00 13,2 13,2 16 9 SSE 15 -
21.05.2019 21:00:00 13,6 13,3 16 9 SSE 15 0
21.05.2019 20:00:00 14,8 14,8 18 10 SSE 15 0
21.05.2019 19:00:00 17,0 16,0 13 7 SSE 12 6
21.05.2019 18:00:00 18,0 15,1 13 7 S 15 18
21.05.2019 17:00:00 18,8 11,4 8 4 S 30 60
21.05.2019 16:00:00 18,0 10,6 9 5 SSE 30 60
21.05.2019 15:00:00 17,4 12,7 9 5 S 20 60
21.05.2019 14:00:00 16,0 12,6 9 5 S 30 60
21.05.2019 13:00:00 15,4 13,3 9 5 S 15 60
21.05.2019 12:00:00 14,2 12,9 8 4 S 20 60
21.05.2019 11:00:00 12,0 12,0 4 2 NW 20 60
21.05.2019 10:00:00 11,8 11,8 9 5 S 30 60
21.05.2019 09:00:00 11,0 11,0 11 6 S 20 60
21.05.2019 08:00:00 10,4 10,4 15 8 S 30 60
21.05.2019 07:00:00 10,4 10,4 11 6 S 30 -
21.05.2019 06:00:00 10,4 10,4 11 6 S 30 -
21.05.2019 05:00:00 10,6 10,6 11 6 S 30 -
21.05.2019 04:00:00 11,0 11,0 9 5 SSW 50 -
21.05.2019 03:00:00 11,0 11,0 5 3 S 50 -
21.05.2019 02:00:00 11,4 11,4 5 3 S 50 -
21.05.2019 01:00:00 12,0 11,2 0 0 N 30 -
21.05.2019 00:00:00 12,0 12,0 5 3 S 30 -
20.05.2019 23:00:00 12,0 11,7 9 5 S 30 -
20.05.2019 22:00:00 12,6 12,4 5 3 S 30 -
20.05.2019 21:00:00 13,0 12,7 9 5 S 30 0
20.05.2019 20:00:00 13,4 12,9 9 5 SE 30 0
20.05.2019 19:00:00 13,8 12,7 13 7 SE 30 0
20.05.2019 18:00:00 14,2 13,4 16 9 ESE 30 0
20.05.2019 17:00:00 14,8 12,8 11 6 ESE 30 0
20.05.2019 16:00:00 15,2 12,5 9 5 SSE 30 60
20.05.2019 15:00:00 14,2 12,8 8 4 SSE 25 -
20.05.2019 14:00:00 13,2 12,4 5 3 NNW 20 48
20.05.2019 13:00:00 12,2 12,2 5 3 S 8 0
20.05.2019 12:00:00 11,6 11,6 8 4 S 3,0 0
20.05.2019 11:00:00 11,0 11,0 5 3 S 0,1 0
20.05.2019 10:00:00 11,0 11,0 0 0 N 0,1 0
20.05.2019 09:00:00 10,4 10,4 0 0 N 0,3 0
20.05.2019 08:00:00 10,0 10,0 5 3 WNW 0,3 0
20.05.2019 07:00:00 10,0 10,0 5 3 NW 0,3 -
20.05.2019 06:00:00 10,0 10,0 5 3 NW 0,1 -
20.05.2019 05:00:00 10,0 10,0 0 0 N 0,1 -
20.05.2019 04:00:00 10,2 10,2 0 0 N 0,1 -
20.05.2019 03:00:00 10,0 10,0 0 0 N 0,1 -
20.05.2019 02:00:00 10,2 10,2 0 0 N 0,1 -
20.05.2019 01:00:00 10,4 10,4 5 3 N 0,1 -
20.05.2019 00:00:00 10,4 10,4 5 3 NNW 0,1 -
19.05.2019 23:00:00 10,6 10,6 0 0 N 0,3 -
19.05.2019 22:00:00 11,0 11,0 0 0 N 0,3 -
19.05.2019 21:00:00 11,2 11,2 0 0 N 2,0 0
19.05.2019 20:00:00 11,4 11,4 0 0 N 12 0
19.05.2019 19:00:00 12,0 12,0 0 0 N 20 0
19.05.2019 18:00:00 12,0 12,0 0 0 N 20 0
19.05.2019 17:00:00 11,4 11,4 0 0 N 12 0
19.05.2019 16:00:00 11,2 11,2 0 0 N 12 0
19.05.2019 15:00:00 11,0 11,0 5 3 N 12 0
19.05.2019 14:00:00 10,4 10,4 11 6 NNW 12 0
19.05.2019 13:00:00 10,2 10,2 9 5 NNW 0,3 0
19.05.2019 12:00:00 10,2 10,2 0 0 N 0,1 0
19.05.2019 11:00:00 9,8 9,8 0 0 N 0,1 0
19.05.2019 10:00:00 9,0 9,0 0 0 N 0,3 0
19.05.2019 09:00:00 9,0 9,0 9 5 N 0,3 0
19.05.2019 08:00:00 9,0 9,0 9 5 NNW 0,5 0
19.05.2019 07:00:00 9,2 9,2 0 0 N 0,1 -
19.05.2019 06:00:00 9,6 9,6 0 0 N 12 -
19.05.2019 05:00:00 9,6 9,6 0 0 N 20 -
19.05.2019 04:00:00 9,4 9,4 4 2 N 20 -
19.05.2019 03:00:00 9,2 9,2 4 2 NW 20 -
19.05.2019 02:00:00 9,2 9,2 4 2 NW 20 -
19.05.2019 01:00:00 9,2 9,2 5 3 NW 20 -
19.05.2019 00:00:00 9,0 9,0 9 5 NW 20 -
18.05.2019 23:00:00 9,0 9,0 9 5 N 15 -
18.05.2019 22:00:00 9,2 9,2 8 4 N 15 -
18.05.2019 21:00:00 9,0 9,0 5 3 N 12 0
18.05.2019 20:00:00 8,8 8,8 8 4 N 0,1 0
18.05.2019 19:00:00 9,0 9,0 9 5 NNW 0,1 0
18.05.2019 18:00:00 8,6 8,6 16 9 N 0,1 0
18.05.2019 17:00:00 8,8 8,8 16 9 N 0,1 0
18.05.2019 16:00:00 8,6 8,6 5 3 N 0,1 0
18.05.2019 15:00:00 8,8 8,8 24 13 N 0,1 0
18.05.2019 14:00:00 8,6 8,6 26 14 N 0,1 0
18.05.2019 13:00:00 8,8 8,8 16 9 N 0,1 0
18.05.2019 12:00:00 8,6 8,6 16 9 N 0,1 0
18.05.2019 11:00:00 8,6 8,6 8 4 N 0,1 0
18.05.2019 10:00:00 8,4 8,4 9 5 NE 0,1 0
18.05.2019 09:00:00 8,0 8,0 9 5 NNE 0,1 0
18.05.2019 08:00:00 7,8 7,8 13 7 N 0,1 0
18.05.2019 07:00:00 7,4 7,4 11 6 NNE 0,1 -
18.05.2019 06:00:00 7,4 7,4 15 8 N 0,1 -
18.05.2019 05:00:00 7,4 7,4 22 12 NNW 0,1 -
18.05.2019 04:00:00 7,8 7,8 16 9 NNW 0,1 -
18.05.2019 03:00:00 7,4 7,4 16 9 NNW 0,1 -
18.05.2019 02:00:00 8,0 8,0 8 4 E 6 -
18.05.2019 01:00:00 7,6 7,6 22 12 N 20 -
18.05.2019 00:00:00 7,4 7,4 29 16 N 15 -
17.05.2019 23:00:00 7,6 7,6 24 13 NNW 12 -
17.05.2019 22:00:00 7,8 7,8 24 13 NNW 3,0 -
17.05.2019 21:00:00 8,0 8,0 22 12 N 4,0 -
17.05.2019 20:00:00 8,0 8,0 21 11 N 6 0
17.05.2019 19:00:00 8,2 8,2 21 11 NW 6 0
17.05.2019 18:00:00 8,2 8,2 13 7 N 6 0
17.05.2019 17:00:00 8,2 8,2 26 14 N 0,4 0
17.05.2019 16:00:00 8,2 8,2 22 12 N 0,1 0
17.05.2019 15:00:00 8,2 8,2 22 12 N 0,1 0
17.05.2019 14:00:00 8,4 8,4 22 12 N 0,1 0

tt = temperature
td = dewpoint
ff = wind speed
dd = wind direction
vv = visibility
sd = sunshine duration

Next stations